Johann Essberger — CQKG — position and weather

sailwx.info

Track history (hours):
 
Tides and Currents Weather Stations Pressure Air Temp Water Temp Dewpoint Dewpoint Depression Visibility Wind Speed Wind Dir Waves Ship Positions

Johann Essberger

Last reported at 2017-Mar-24 20:07 UTC. Time now 2017-Mar-28 10:03 UTC.
Position N 55°44' E 020°46'.

Length 100 m; draft 7 m.

Type: Ship (hazmat cat B). MMSI: 255804460.

Date/timePositionNaut miles runAvg speedWind from/ knotsBaromVisibWave heightAir tempDewpointWater temp
2017-Mar-24 20:07N 55°44' E 020°46'813.6
2017-Mar-24 19:33N 55°43' E 020°32'4613.7
2017-Mar-24 16:12N 55°39' E 019°11'913.7
2017-Mar-24 15:31N 55°38' E 018°54'9313.2
2017-Mar-24 08:29N 55°29' E 016°10'1213.2
2017-Mar-24 07:34N 55°27' E 015°49'1313.4
2017-Mar-24 06:33N 55°26' E 015°26'1313.2
2017-Mar-24 05:34N 55°25' E 015°02'1312.5
2017-Mar-24 04:33N 55°24' E 014°40'1212.2
2017-Mar-24 03:34N 55°15' E 014°26'1111.4
2017-Mar-24 02:34N 55°09' E 014°08'1312.8
2017-Mar-24 01:33N 55°10' E 013°46'1513.4
2017-Mar-24 00:28N 55°10' E 013°20'1313.1
2017-Mar-23 23:28N 55°14' E 012°58'1212.9
2017-Mar-23 22:33N 55°18' E 012°39'1212.2
2017-Mar-23 21:32N 55°30' E 012°43'1111.0
2017-Mar-23 20:33N 55°38' E 012°55'3 3.3
2017-Mar-23 19:32N 55°38' E 013°01'0 0.0
2017-Mar-23 18:31N 55°38' E 013°01'0 0.0
2017-Mar-23 17:31N 55°38' E 013°01'0 0.0
2017-Mar-23 16:31N 55°38' E 013°01'0 0.0
2017-Mar-23 15:32N 55°38' E 013°01'0 0.0
2017-Mar-23 14:31N 55°38' E 013°01'0 0.0
2017-Mar-23 13:31N 55°38' E 013°01'0 0.0
2017-Mar-23 12:31N 55°38' E 013°01'0 0.0
2017-Mar-23 11:33N 55°38' E 013°01'3 3.2
2017-Mar-23 10:33N 55°38' E 012°56'10 9.5
2017-Mar-23 09:32N 55°31' E 012°44'1110.1
2017-Mar-23 08:28N 55°20' E 012°40'2912.7
2017-Mar-23 06:10N 54°51' E 012°40'712.1
2017-Mar-23 05:33N 54°44' E 012°39'1211.6
2017-Mar-23 04:33N 54°36' E 012°23'1211.4
2017-Mar-23 03:32N 54°26' E 012°13'1412.0
2017-Mar-23 02:22N 54°25' E 011°49'1012.7
2017-Mar-23 01:33N 54°29' E 011°32'1312.9
2017-Mar-23 00:33N 54°34' E 011°12'1312.6
2017-Mar-22 23:33N 54°34' E 010°50'62 6.9
2017-Mar-22 14:30N 54°03' E 009°18'1 0.6
2017-Mar-22 13:34N 54°02' E 009°18'8 7.6
2017-Mar-22 12:33N 53°55' E 009°12'2 2.5
2017-Mar-22 11:33N 53°54' E 009°09'2 1.8
2017-Mar-22 10:34N 53°53' E 009°06'7 7.0
2017-Mar-22 09:33N 53°50' E 008°55'1010.4
2017-Mar-22 08:33N 53°56' E 008°40'1211.7
2017-Mar-22 07:33N 53°60' E 008°21'1110.9
2017-Mar-22 06:33N 53°59' E 008°02'13611.3
2017-Mar-21 18:33N 53°08' E 004°30'1211.7
2017-Mar-21 17:33N 52°58' E 004°20'1111.5
2017-Mar-21 16:33N 52°48' E 004°12'1111.3
2017-Mar-21 15:33N 52°38' E 004°02'1110.9
2017-Mar-21 14:33N 52°29' E 003°54'1110.8
2017-Mar-21 13:33N 52°18' E 003°52'1111.1
2017-Mar-21 12:34N 52°07' E 003°55'9 8.9
2017-Mar-21 11:33N 51°59' E 004°03'2 1.8
2017-Mar-21 10:33N 51°58' E 004°02'0 0.0
2017-Mar-21 08:22N 51°58' E 004°02'0 0.0
2017-Mar-21 05:28N 51°58' E 004°02'0 0.0
2017-Mar-21 04:33N 51°58' E 004°02'0 0.0
2017-Mar-21 03:33N 51°58' E 004°02'0 0.0
2017-Mar-21 02:33N 51°58' E 004°02'0 0.0
2017-Mar-21 01:27N 51°58' E 004°02'0 0.0
2017-Mar-20 23:33N 51°58' E 004°02'0 0.0
2017-Mar-20 22:27N 51°58' E 004°02'1 1.3
2017-Mar-20 21:33N 51°58' E 004°04'6 5.9
2017-Mar-20 20:33N 51°59' E 003°54'3310.2
2017-Mar-20 17:18N 52°20' E 003°12'7 9.4
2017-Mar-20 16:32N 52°25' E 003°03'57 6.3
2017-Mar-20 07:33N 51°30' E 003°28'28 8.4
2017-Mar-20 04:14N 51°24' E 004°12'811.2
2017-Mar-20 03:33N 51°17' E 004°19'3 3.1
2017-Mar-20 02:33N 51°15' E 004°20'0 0.0
2017-Mar-20 01:28N 51°15' E 004°20'0 0.0
2017-Mar-20 00:31N 51°15' E 004°20'0 0.0
2017-Mar-19 23:31N 51°15' E 004°20'0 0.0
2017-Mar-19 22:28N 51°15' E 004°20'0 0.0
2017-Mar-19 21:31N 51°15' E 004°20'0 0.0
2017-Mar-19 20:31N 51°15' E 004°20'0 0.0
2017-Mar-19 19:31N 51°15' E 004°20'0 0.0
2017-Mar-19 18:31N 51°15' E 004°20'0 0.0
2017-Mar-19 17:31N 51°15' E 004°20'0 0.0
2017-Mar-19 16:31N 51°15' E 004°20'0 0.0
2017-Mar-19 15:22N 51°15' E 004°20'0 0.0
2017-Mar-19 14:28N 51°15' E 004°20'0 0.0
2017-Mar-19 13:31N 51°15' E 004°20'0 0.0
2017-Mar-19 12:31N 51°15' E 004°20'0 0.0
2017-Mar-19 11:31N 51°15' E 004°20'0 0.0
2017-Mar-19 10:31N 51°15' E 004°20'0 0.0
2017-Mar-19 09:31N 51°15' E 004°20'0 0.0
2017-Mar-19 08:31N 51°15' E 004°20'0 0.0
2017-Mar-19 07:31N 51°15' E 004°20'0 0.0
2017-Mar-19 06:31N 51°15' E 004°20'0 0.0
2017-Mar-19 05:31N 51°15' E 004°20'0 0.0
2017-Mar-19 04:31N 51°15' E 004°20'0 0.0
2017-Mar-19 03:31N 51°15' E 004°20'0 0.0
2017-Mar-19 02:31N 51°15' E 004°20'0 0.0
2017-Mar-19 01:28N 51°15' E 004°20'0 0.0
2017-Mar-19 00:28N 51°15' E 004°20'0 0.0
2017-Mar-18 23:31N 51°15' E 004°20'0 0.0
2017-Mar-18 22:31N 51°15' E 004°20'0 0.0
2017-Mar-18 21:31N 51°15' E 004°20'0 0.0
2017-Mar-18 20:31N 51°15' E 004°20'0 0.0
2017-Mar-18 19:31N 51°15' E 004°20'0 0.0
2017-Mar-18 18:28N 51°15' E 004°20'0 0.0
2017-Mar-18 17:31N 51°15' E 004°20'0 0.0
2017-Mar-18 16:31N 51°15' E 004°20'0 0.0
2017-Mar-18 15:31N 51°15' E 004°20'0 0.0
2017-Mar-18 14:31N 51°15' E 004°20'0 0.0
2017-Mar-18 13:31N 51°15' E 004°20'0 0.0
2017-Mar-18 12:31N 51°15' E 004°20'0 0.0
2017-Mar-18 11:31N 51°15' E 004°20'0 0.0
2017-Mar-18 10:31N 51°15' E 004°20'0 0.0
2017-Mar-18 09:31N 51°15' E 004°20'0 0.0
2017-Mar-18 08:31N 51°15' E 004°20'0 0.0
2017-Mar-18 07:31N 51°15' E 004°20'0 0.0
2017-Mar-18 06:25N 51°15' E 004°20'0 0.0
2017-Mar-18 05:28N 51°15' E 004°20'0 0.0
2017-Mar-18 04:33N 51°15' E 004°20'1 0.9
2017-Mar-18 03:33N 51°15' E 004°19'10 9.6
2017-Mar-18 02:33N 51°22' E 004°09'1110.9
2017-Mar-18 01:32N 51°21' E 003°51'5 2.6
2017-Mar-17 23:33N 51°16' E 003°50'6 6.4
2017-Mar-17 22:33N 51°09' E 003°47'0 0.0
2017-Mar-17 20:11N 51°09' E 003°47'0 0.0
2017-Mar-17 18:29N 51°09' E 003°47'0 0.0
2017-Mar-17 17:17N 51°09' E 003°47'0 0.0
2017-Mar-17 15:05N 51°09' E 003°47'0 0.0
2017-Mar-17 14:23N 51°09' E 003°47'0 0.0
2017-Mar-17 12:11N 51°09' E 003°47'0 0.0
2017-Mar-17 10:29N 51°09' E 003°47'0 0.0
2017-Mar-17 09:29N 51°09' E 003°47'0 0.0
2017-Mar-17 07:29N 51°09' E 003°47'0 0.0
2017-Mar-17 06:33N 51°09' E 003°47'1 0.7
2017-Mar-17 05:33N 51°09' E 003°47'0 0.0
2017-Mar-17 04:30N 51°09' E 003°47'0 0.0
2017-Mar-17 03:33N 51°09' E 003°47'0 0.0
2017-Mar-17 02:33N 51°09' E 003°47'0 0.0
2017-Mar-17 01:30N 51°09' E 003°47'0 0.0
2017-Mar-17 00:33N 51°09' E 003°47'0 0.0
2017-Mar-16 23:33N 51°09' E 003°47'0 0.0
2017-Mar-16 22:27N 51°09' E 003°47'0 0.0
2017-Mar-16 21:30N 51°09' E 003°47'0 0.0
2017-Mar-16 20:30N 51°09' E 003°47'0 0.0
2017-Mar-16 19:33N 51°09' E 003°47'0 0.0
2017-Mar-16 18:24N 51°09' E 003°47'0 0.0
2017-Mar-16 17:33N 51°09' E 003°47'0 0.0
2017-Mar-16 16:33N 51°09' E 003°47'0 0.0
2017-Mar-16 15:30N 51°09' E 003°47'0 0.0
2017-Mar-16 14:33N 51°09' E 003°47'2 2.2
2017-Mar-16 13:33N 51°11' E 003°48'7 7.2
2017-Mar-16 12:31N 51°18' E 003°50'2 1.9
2017-Mar-16 11:22N 51°20' E 003°49'5 6.5
2017-Mar-16 10:33N 51°24' E 003°42'9 9.3
2017-Mar-16 09:33N 51°29' E 003°30'1712.2
2017-Mar-16 08:07N 51°44' E 003°15'812.1
2017-Mar-16 07:27N 51°52' E 003°16'1011.2
2017-Mar-16 06:33N 52°01' E 003°20'1211.9
2017-Mar-16 05:33N 52°13' E 003°23'20010.3
2017-Mar-15 10:04N 54°02' E 008°03'810.1
2017-Mar-15 09:15N 54°00' E 008°17'1012.7
2017-Mar-15 08:29N 53°58' E 008°33'1313.8
2017-Mar-15 07:34N 53°50' E 008°51'1111.2
2017-Mar-15 06:33N 53°53' E 009°09'8 8.5
2017-Mar-15 05:34N 53°49' E 009°22'1111.3
2017-Mar-15 04:33N 53°39' E 009°31'0 0.0
2017-Mar-15 03:32N 53°39' E 009°31'0 0.0
2017-Mar-15 02:32N 53°39' E 009°31'0 0.0
2017-Mar-15 01:32N 53°39' E 009°31'0 0.0
2017-Mar-15 00:32N 53°39' E 009°31'0 0.0
2017-Mar-14 23:32N 53°39' E 009°31'0 0.0
2017-Mar-14 22:32N 53°39' E 009°31'0 0.0
2017-Mar-14 21:32N 53°39' E 009°31'0 0.0
2017-Mar-14 20:32N 53°39' E 009°31'  
Track history (hours):
 
Tides and Currents Weather Stations Pressure Air Temp Water Temp Dewpoint Dewpoint Depression Visibility Wind Speed Wind Dir Waves Ship Positions

Johann Essberger

Last reported at 2017-Mar-24 20:07 UTC. Time now 2017-Mar-28 10:03 UTC.
Position N 55°44' E 020°46'.

Length 100 m; draft 7 m.

Type: Ship (hazmat cat B). MMSI: 255804460.

Date/timePositionNaut miles runAvg speedWind from/ knotsBaromVisibWave heightAir tempDewpointWater temp
2017-Mar-24 20:07N 55°44' E 020°46'813.6
2017-Mar-24 19:33N 55°43' E 020°32'4613.7
2017-Mar-24 16:12N 55°39' E 019°11'913.7
2017-Mar-24 15:31N 55°38' E 018°54'9313.2
2017-Mar-24 08:29N 55°29' E 016°10'1213.2
2017-Mar-24 07:34N 55°27' E 015°49'1313.4
2017-Mar-24 06:33N 55°26' E 015°26'1313.2
2017-Mar-24 05:34N 55°25' E 015°02'1312.5
2017-Mar-24 04:33N 55°24' E 014°40'1212.2
2017-Mar-24 03:34N 55°15' E 014°26'1111.4
2017-Mar-24 02:34N 55°09' E 014°08'1312.8
2017-Mar-24 01:33N 55°10' E 013°46'1513.4
2017-Mar-24 00:28N 55°10' E 013°20'1313.1
2017-Mar-23 23:28N 55°14' E 012°58'1212.9
2017-Mar-23 22:33N 55°18' E 012°39'1212.2
2017-Mar-23 21:32N 55°30' E 012°43'1111.0
2017-Mar-23 20:33N 55°38' E 012°55'3 3.3
2017-Mar-23 19:32N 55°38' E 013°01'0 0.0
2017-Mar-23 18:31N 55°38' E 013°01'0 0.0
2017-Mar-23 17:31N 55°38' E 013°01'0 0.0
2017-Mar-23 16:31N 55°38' E 013°01'0 0.0
2017-Mar-23 15:32N 55°38' E 013°01'0 0.0
2017-Mar-23 14:31N 55°38' E 013°01'0 0.0
2017-Mar-23 13:31N 55°38' E 013°01'0 0.0
2017-Mar-23 12:31N 55°38' E 013°01'0 0.0
2017-Mar-23 11:33N 55°38' E 013°01'3 3.2
2017-Mar-23 10:33N 55°38' E 012°56'10 9.5
2017-Mar-23 09:32N 55°31' E 012°44'1110.1
2017-Mar-23 08:28N 55°20' E 012°40'2912.7
2017-Mar-23 06:10N 54°51' E 012°40'712.1
2017-Mar-23 05:33N 54°44' E 012°39'1211.6
2017-Mar-23 04:33N 54°36' E 012°23'1211.4
2017-Mar-23 03:32N 54°26' E 012°13'1412.0
2017-Mar-23 02:22N 54°25' E 011°49'1012.7
2017-Mar-23 01:33N 54°29' E 011°32'1312.9
2017-Mar-23 00:33N 54°34' E 011°12'1312.6
2017-Mar-22 23:33N 54°34' E 010°50'62 6.9
2017-Mar-22 14:30N 54°03' E 009°18'1 0.6
2017-Mar-22 13:34N 54°02' E 009°18'8 7.6
2017-Mar-22 12:33N 53°55' E 009°12'2 2.5
2017-Mar-22 11:33N 53°54' E 009°09'2 1.8
2017-Mar-22 10:34N 53°53' E 009°06'7 7.0
2017-Mar-22 09:33N 53°50' E 008°55'1010.4
2017-Mar-22 08:33N 53°56' E 008°40'1211.7
2017-Mar-22 07:33N 53°60' E 008°21'1110.9
2017-Mar-22 06:33N 53°59' E 008°02'13611.3
2017-Mar-21 18:33N 53°08' E 004°30'1211.7
2017-Mar-21 17:33N 52°58' E 004°20'1111.5
2017-Mar-21 16:33N 52°48' E 004°12'1111.3
2017-Mar-21 15:33N 52°38' E 004°02'1110.9
2017-Mar-21 14:33N 52°29' E 003°54'1110.8
2017-Mar-21 13:33N 52°18' E 003°52'1111.1
2017-Mar-21 12:34N 52°07' E 003°55'9 8.9
2017-Mar-21 11:33N 51°59' E 004°03'2 1.8
2017-Mar-21 10:33N 51°58' E 004°02'0 0.0
2017-Mar-21 08:22N 51°58' E 004°02'0 0.0
2017-Mar-21 05:28N 51°58' E 004°02'0 0.0
2017-Mar-21 04:33N 51°58' E 004°02'0 0.0
2017-Mar-21 03:33N 51°58' E 004°02'0 0.0
2017-Mar-21 02:33N 51°58' E 004°02'0 0.0
2017-Mar-21 01:27N 51°58' E 004°02'0 0.0
2017-Mar-20 23:33N 51°58' E 004°02'0 0.0
2017-Mar-20 22:27N 51°58' E 004°02'1 1.3
2017-Mar-20 21:33N 51°58' E 004°04'6 5.9
2017-Mar-20 20:33N 51°59' E 003°54'3310.2
2017-Mar-20 17:18N 52°20' E 003°12'7 9.4
2017-Mar-20 16:32N 52°25' E 003°03'57 6.3
2017-Mar-20 07:33N 51°30' E 003°28'28 8.4
2017-Mar-20 04:14N 51°24' E 004°12'811.2
2017-Mar-20 03:33N 51°17' E 004°19'3 3.1
2017-Mar-20 02:33N 51°15' E 004°20'0 0.0
2017-Mar-20 01:28N 51°15' E 004°20'0 0.0
2017-Mar-20 00:31N 51°15' E 004°20'0 0.0
2017-Mar-19 23:31N 51°15' E 004°20'0 0.0
2017-Mar-19 22:28N 51°15' E 004°20'0 0.0
2017-Mar-19 21:31N 51°15' E 004°20'0 0.0
2017-Mar-19 20:31N 51°15' E 004°20'0 0.0
2017-Mar-19 19:31N 51°15' E 004°20'0 0.0
2017-Mar-19 18:31N 51°15' E 004°20'0 0.0
2017-Mar-19 17:31N 51°15' E 004°20'0 0.0
2017-Mar-19 16:31N 51°15' E 004°20'0 0.0
2017-Mar-19 15:22N 51°15' E 004°20'0 0.0
2017-Mar-19 14:28N 51°15' E 004°20'0 0.0
2017-Mar-19 13:31N 51°15' E 004°20'0 0.0
2017-Mar-19 12:31N 51°15' E 004°20'0 0.0
2017-Mar-19 11:31N 51°15' E 004°20'0 0.0
2017-Mar-19 10:31N 51°15' E 004°20'0 0.0
2017-Mar-19 09:31N 51°15' E 004°20'0 0.0
2017-Mar-19 08:31N 51°15' E 004°20'0 0.0
2017-Mar-19 07:31N 51°15' E 004°20'0 0.0
2017-Mar-19 06:31N 51°15' E 004°20'0 0.0
2017-Mar-19 05:31N 51°15' E 004°20'0 0.0
2017-Mar-19 04:31N 51°15' E 004°20'0 0.0
2017-Mar-19 03:31N 51°15' E 004°20'0 0.0
2017-Mar-19 02:31N 51°15' E 004°20'0 0.0
2017-Mar-19 01:28N 51°15' E 004°20'0 0.0
2017-Mar-19 00:28N 51°15' E 004°20'0 0.0
2017-Mar-18 23:31N 51°15' E 004°20'0 0.0
2017-Mar-18 22:31N 51°15' E 004°20'0 0.0
2017-Mar-18 21:31N 51°15' E 004°20'0 0.0
2017-Mar-18 20:31N 51°15' E 004°20'0 0.0
2017-Mar-18 19:31N 51°15' E 004°20'0 0.0
2017-Mar-18 18:28N 51°15' E 004°20'0 0.0
2017-Mar-18 17:31N 51°15' E 004°20'0 0.0
2017-Mar-18 16:31N 51°15' E 004°20'0 0.0
2017-Mar-18 15:31N 51°15' E 004°20'0 0.0
2017-Mar-18 14:31N 51°15' E 004°20'0 0.0
2017-Mar-18 13:31N 51°15' E 004°20'0 0.0
2017-Mar-18 12:31N 51°15' E 004°20'0 0.0
2017-Mar-18 11:31N 51°15' E 004°20'0 0.0
2017-Mar-18 10:31N 51°15' E 004°20'0 0.0
2017-Mar-18 09:31N 51°15' E 004°20'0 0.0
2017-Mar-18 08:31N 51°15' E 004°20'0 0.0
2017-Mar-18 07:31N 51°15' E 004°20'0 0.0
2017-Mar-18 06:25N 51°15' E 004°20'0 0.0
2017-Mar-18 05:28N 51°15' E 004°20'0 0.0
2017-Mar-18 04:33N 51°15' E 004°20'1 0.9
2017-Mar-18 03:33N 51°15' E 004°19'10 9.6
2017-Mar-18 02:33N 51°22' E 004°09'1110.9
2017-Mar-18 01:32N 51°21' E 003°51'5 2.6
2017-Mar-17 23:33N 51°16' E 003°50'6 6.4
2017-Mar-17 22:33N 51°09' E 003°47'0 0.0
2017-Mar-17 20:11N 51°09' E 003°47'0 0.0
2017-Mar-17 18:29N 51°09' E 003°47'0 0.0
2017-Mar-17 17:17N 51°09' E 003°47'0 0.0
2017-Mar-17 15:05N 51°09' E 003°47'0 0.0
2017-Mar-17 14:23N 51°09' E 003°47'0 0.0
2017-Mar-17 12:11N 51°09' E 003°47'0 0.0
2017-Mar-17 10:29N 51°09' E 003°47'0 0.0
2017-Mar-17 09:29N 51°09' E 003°47'0 0.0
2017-Mar-17 07:29N 51°09' E 003°47'0 0.0
2017-Mar-17 06:33N 51°09' E 003°47'1 0.7
2017-Mar-17 05:33N 51°09' E 003°47'0 0.0
2017-Mar-17 04:30N 51°09' E 003°47'0 0.0
2017-Mar-17 03:33N 51°09' E 003°47'0 0.0
2017-Mar-17 02:33N 51°09' E 003°47'0 0.0
2017-Mar-17 01:30N 51°09' E 003°47'0 0.0
2017-Mar-17 00:33N 51°09' E 003°47'0 0.0
2017-Mar-16 23:33N 51°09' E 003°47'0 0.0
2017-Mar-16 22:27N 51°09' E 003°47'0 0.0
2017-Mar-16 21:30N 51°09' E 003°47'0 0.0
2017-Mar-16 20:30N 51°09' E 003°47'0 0.0
2017-Mar-16 19:33N 51°09' E 003°47'0 0.0
2017-Mar-16 18:24N 51°09' E 003°47'0 0.0
2017-Mar-16 17:33N 51°09' E 003°47'0 0.0
2017-Mar-16 16:33N 51°09' E 003°47'0 0.0
2017-Mar-16 15:30N 51°09' E 003°47'0 0.0
2017-Mar-16 14:33N 51°09' E 003°47'2 2.2
2017-Mar-16 13:33N 51°11' E 003°48'7 7.2
2017-Mar-16 12:31N 51°18' E 003°50'2 1.9
2017-Mar-16 11:22N 51°20' E 003°49'5 6.5
2017-Mar-16 10:33N 51°24' E 003°42'9 9.3
2017-Mar-16 09:33N 51°29' E 003°30'1712.2
2017-Mar-16 08:07N 51°44' E 003°15'812.1
2017-Mar-16 07:27N 51°52' E 003°16'1011.2
2017-Mar-16 06:33N 52°01' E 003°20'1211.9
2017-Mar-16 05:33N 52°13' E 003°23'20010.3
2017-Mar-15 10:04N 54°02' E 008°03'810.1
2017-Mar-15 09:15N 54°00' E 008°17'1012.7
2017-Mar-15 08:29N 53°58' E 008°33'1313.8
2017-Mar-15 07:34N 53°50' E 008°51'1111.2
2017-Mar-15 06:33N 53°53' E 009°09'8 8.5
2017-Mar-15 05:34N 53°49' E 009°22'1111.3
2017-Mar-15 04:33N 53°39' E 009°31'0 0.0
2017-Mar-15 03:32N 53°39' E 009°31'0 0.0
2017-Mar-15 02:32N 53°39' E 009°31'0 0.0
2017-Mar-15 01:32N 53°39' E 009°31'0 0.0
2017-Mar-15 00:32N 53°39' E 009°31'0 0.0
2017-Mar-14 23:32N 53°39' E 009°31'0 0.0
2017-Mar-14 22:32N 53°39' E 009°31'0 0.0
2017-Mar-14 21:32N 53°39' E 009°31'0 0.0
2017-Mar-14 20:32N 53°39' E 009°31'  

Dump ship's entire track history